Time;durP1;ratioP1;P1;durP2;ratioP2;P2;SDS_P1;SDS_P2;PMS_P1;PMS_P2;Temp;Humidity;BMP_temperature;BMP_pressure;BME280_temperature;BME280_humidity;BME280_pressure;Samples;Min_cycle;Max_cycle;Signal;HPM_P1;HPM_P2
2022/09/06 00:02:18;;;;;;;7.50;6.20;;;;;;;19.73;64.00;101163.55;107269;1284;72803;-84
2022/09/06 00:04:45;;;;;;;8.70;6.30;;;;;;;19.72;63.99;101159.26;107345;1284;61699;-84
2022/09/06 00:07:11;;;;;;;8.70;6.80;;;;;;;19.71;64.01;101157.19;107515;1284;61168;-84
2022/09/06 00:09:38;;;;;;;7.40;6.40;;;;;;;19.70;64.08;101158.07;107350;1284;75570;-83
2022/09/06 00:12:05;;;;;;;7.60;6.70;;;;;;;19.69;64.15;101158.35;107548;1284;72763;-84
2022/09/06 00:14:32;;;;;;;6.90;6.20;;;;;;;19.68;64.55;101151.05;107233;1285;73859;-84
2022/09/06 00:16:59;;;;;;;8.10;6.20;;;;;;;19.66;64.41;101145.19;107379;1284;63830;-84
2022/09/06 00:19:26;;;;;;;9.90;6.20;;;;;;;19.65;64.35;101145.11;107248;1284;61239;-84
2022/09/06 00:21:53;;;;;;;6.70;5.90;;;;;;;19.66;64.28;101148.58;107545;1284;73094;-84
2022/09/06 00:24:20;;;;;;;8.70;5.70;;;;;;;19.67;64.16;101150.84;107586;1284;73532;-84
2022/09/06 00:26:46;;;;;;;7.40;6.20;;;;;;;19.67;64.12;101151.66;107315;1284;73188;-84
2022/09/06 00:29:13;;;;;;;7.10;5.90;;;;;;;19.67;64.00;101152.36;107373;1284;63399;-85
2022/09/06 00:31:40;;;;;;;7.60;6.30;;;;;;;19.69;63.83;101154.26;107633;1283;60915;-84
2022/09/06 00:34:07;;;;;;;6.60;5.90;;;;;;;19.72;63.87;101158.72;107378;1284;75557;-85
2022/09/06 00:36:35;;;;;;;6.60;5.80;;;;;;;19.73;63.59;101161.81;107327;1284;70388;-85
2022/09/06 00:39:02;;;;;;;7.30;6.30;;;;;;;19.73;63.60;101159.04;107390;1283;75527;-86
2022/09/06 00:41:29;;;;;;;6.80;5.80;;;;;;;19.76;63.40;101157.60;107639;1284;62306;-84
2022/09/06 00:43:56;;;;;;;7.50;5.70;;;;;;;19.77;63.19;101158.66;107566;1283;62198;-84
2022/09/06 00:46:26;;;;;;;8.70;5.80;;;;;;;19.79;63.19;101164.31;107397;1284;75471;-84
2022/09/06 00:49:03;;;;;;;7.30;6.00;;;;;;;19.80;63.38;101157.35;107318;1284;71883;-83
2022/09/06 00:51:33;;;;;;;9.60;5.60;;;;;;;19.80;63.27;101152.45;107347;1284;73620;-84
2022/09/06 00:54:05;;;;;;;6.70;5.50;;;;;;;19.80;63.14;101140.83;107525;1283;64052;-84
2022/09/06 00:56:36;;;;;;;7.30;5.60;;;;;;;19.80;63.23;101144.75;107216;1285;60569;-84
2022/09/06 00:59:04;;;;;;;7.30;5.60;;;;;;;19.79;63.17;101149.95;107383;1283;75247;-83
2022/09/06 01:01:30;;;;;;;6.40;5.80;;;;;;;19.79;63.09;101149.99;107262;1284;70411;-84
2022/09/06 01:03:58;;;;;;;7.50;5.90;;;;;;;19.79;62.89;101152.10;107412;1283;75162;-83
2022/09/06 01:06:33;;;;;;;7.30;6.00;;;;;;;19.79;62.94;101151.20;107463;1283;63225;-84
2022/09/06 01:09:32;;;;;;;7.00;5.60;;;;;;;19.80;63.04;101159.13;107340;1284;60814;-84
2022/09/06 01:12:07;;;;;;;7.00;5.50;;;;;;;19.81;62.81;101158.88;107284;1284;75830;-84
2022/09/06 01:14:52;;;;;;;6.80;5.60;;;;;;;19.80;62.81;101159.67;107513;1284;72498;-84
2022/09/06 01:17:38;;;;;;;6.90;5.70;;;;;;;19.80;62.75;101159.34;107431;1284;73439;-84
2022/09/06 01:20:30;;;;;;;7.40;5.70;;;;;;;19.81;62.67;101158.77;107533;1282;63501;-84
2022/09/06 01:23:12;;;;;;;7.70;5.50;;;;;;;19.83;62.68;101160.68;107506;1284;60697;-84
2022/09/06 01:26:05;;;;;;;6.30;5.60;;;;;;;19.82;62.76;101162.54;107494;1282;75744;-84
2022/09/06 01:28:44;;;;;;;5.80;5.20;;;;;;;19.81;62.50;101159.16;107202;1285;71612;-84
2022/09/06 01:31:43;;;;;;;9.30;5.90;;;;;;;19.80;62.40;101155.89;107478;1283;73425;-83
2022/09/06 01:34:49;;;;;;;6.60;5.70;;;;;;;19.79;62.42;101155.70;107381;1284;61206;-84
2022/09/06 01:37:21;;;;;;;9.40;5.90;;;;;;;19.76;62.69;101151.09;107506;1282;61133;-84
2022/09/06 01:39:48;;;;;;;6.50;5.80;;;;;;;19.72;62.73;101146.05;107335;1284;74174;-84
2022/09/06 01:42:19;;;;;;;6.10;5.50;;;;;;;19.72;62.45;101142.57;107428;1284;71365;-83
2022/09/06 01:44:52;;;;;;;6.20;5.20;;;;;;;19.70;62.45;101136.54;107364;1284;74184;-83
2022/09/06 01:47:21;;;;;;;7.40;5.90;;;;;;;19.69;62.39;101130.95;107472;1284;62311;-85
2022/09/06 01:50:00;;;;;;;7.60;5.60;;;;;;;19.68;62.26;101130.50;107497;1282;61010;-84
2022/09/06 01:52:49;;;;;;;7.80;5.70;;;;;;;19.67;62.43;101125.88;107571;1283;74376;-84
2022/09/06 01:56:02;;;;;;;8.00;5.60;;;;;;;19.62;62.55;101123.68;107359;1283;71306;-84
2022/09/06 01:59:00;;;;;;;7.00;5.40;;;;;;;19.58;62.44;101127.21;107292;1282;72729;-86
2022/09/06 02:01:36;;;;;;;8.10;5.60;;;;;;;19.54;62.52;101127.71;107545;1283;62138;-85
2022/09/06 02:04:09;;;;;;;7.20;5.20;;;;;;;19.52;62.29;101125.46;107292;1284;60535;-85
2022/09/06 02:06:48;;;;;;;6.20;5.20;;;;;;;19.51;62.29;101119.77;107537;1284;75611;-85
2022/09/06 02:09:20;;;;;;;6.50;5.10;;;;;;;19.48;62.42;101119.30;107317;1284;70294;-85
2022/09/06 02:11:59;;;;;;;5.90;5.20;;;;;;;19.45;62.33;101116.46;107399;1284;73467;-85
2022/09/06 02:14:31;;;;;;;6.40;5.30;;;;;;;19.44;62.28;101110.60;107241;1284;61938;-85
2022/09/06 02:17:01;;;;;;;6.00;5.00;;;;;;;19.42;62.29;101107.97;107500;1283;62340;-84
2022/09/06 02:19:38;;;;;;;7.00;4.60;;;;;;;19.41;62.06;101104.71;107181;1284;73884;-85
2022/09/06 02:22:08;;;;;;;7.20;5.30;;;;;;;19.40;61.99;101106.51;107522;1283;71838;-85
2022/09/06 02:24:38;;;;;;;5.90;5.10;;;;;;;19.39;61.95;101106.77;107225;1284;74481;-84
2022/09/06 02:27:05;;;;;;;6.50;5.00;;;;;;;19.38;61.88;101108.15;107286;1284;62415;-85
2022/09/06 02:29:34;;;;;;;5.90;5.20;;;;;;;19.36;62.00;101113.18;107186;1284;61516;-85
2022/09/06 02:32:08;;;;;;;6.00;5.20;;;;;;;19.35;62.03;101111.48;107251;1284;74182;-85
2022/09/06 02:34:38;;;;;;;5.90;5.00;;;;;;;19.35;62.02;101115.25;107355;1284;72158;-85
2022/09/06 02:37:06;;;;;;;8.60;5.10;;;;;;;19.32;62.15;101116.69;107504;1283;73466;-84
2022/09/06 02:39:33;;;;;;;6.10;4.90;;;;;;;19.31;62.17;101114.09;107175;1284;62448;-85
2022/09/06 02:42:01;;;;;;;7.80;5.00;;;;;;;19.29;62.05;101113.45;107246;1284;61573;-85
2022/09/06 02:44:28;;;;;;;5.60;5.00;;;;;;;19.28;62.07;101106.98;107518;1284;74828;-85
2022/09/06 02:46:54;;;;;;;5.20;4.70;;;;;;;19.27;62.02;101111.81;107545;1284;71741;-84
2022/09/06 02:49:23;;;;;;;6.30;5.10;;;;;;;19.24;62.12;101113.75;107227;1284;73498;-85
2022/09/06 02:51:51;;;;;;;8.70;5.30;;;;;;;19.23;62.14;101111.69;107452;1284;62683;-85
2022/09/06 02:54:18;;;;;;;5.60;4.60;;;;;;;19.19;62.33;101103.45;108006;1282;61608;-85
2022/09/06 02:56:45;;;;;;;5.50;4.80;;;;;;;19.14;62.33;101101.33;107814;1284;74941;-85
2022/09/06 02:59:18;;;;;;;6.30;5.10;;;;;;;19.11;62.38;101101.58;107756;1284;70960;-84
2022/09/06 03:01:44;;;;;;;7.60;5.00;;;;;;;19.09;62.33;101101.92;107378;1284;73152;-85
2022/09/06 03:04:12;;;;;;;5.70;5.00;;;;;;;19.07;62.35;101100.64;107508;1282;62571;-85
2022/09/06 03:06:39;;;;;;;6.40;5.00;;;;;;;19.04;62.38;101101.77;107263;1284;61658;-85
2022/09/06 03:09:06;;;;;;;5.80;4.70;;;;;;;18.99;62.34;101095.12;107372;1282;75230;-85
2022/09/06 03:11:32;;;;;;;5.80;4.80;;;;;;;18.95;62.20;101090.86;107476;1284;72351;-85
2022/09/06 03:13:59;;;;;;;5.30;4.70;;;;;;;18.92;62.13;101087.70;107442;1283;74280;-84
2022/09/06 03:16:26;;;;;;;5.80;5.00;;;;;;;18.89;62.14;101092.02;107290;1284;63483;-86
2022/09/06 03:18:53;;;;;;;7.00;4.70;;;;;;;18.84;62.24;101094.25;107459;1284;59841;-86
2022/09/06 03:21:20;;;;;;;6.90;4.70;;;;;;;18.84;62.21;101101.98;107452;1283;74353;-86
2022/09/06 03:23:47;;;;;;;6.40;4.40;;;;;;;18.80;62.29;101095.45;107420;1284;72932;-85
2022/09/06 03:26:13;;;;;;;5.70;4.60;;;;;;;18.74;62.26;101088.06;107378;1284;73918;-86
2022/09/06 03:28:41;;;;;;;5.70;4.70;;;;;;;18.70;62.11;101087.71;107355;1283;62080;-86
2022/09/06 03:31:09;;;;;;;5.80;4.50;;;;;;;18.67;62.15;101089.45;107381;1284;60702;-84
2022/09/06 03:33:36;;;;;;;6.60;4.60;;;;;;;18.63;62.08;101093.39;107290;1284;75616;-84
2022/09/06 03:36:06;;;;;;;6.00;4.60;;;;;;;18.60;61.90;101091.94;107432;1283;71327;-85
2022/09/06 03:38:33;;;;;;;5.20;4.50;;;;;;;18.57;61.94;101095.65;107447;1283;72547;-84
2022/09/06 03:41:00;;;;;;;6.40;4.70;;;;;;;18.54;61.95;101096.64;107340;1284;64448;-85
2022/09/06 03:43:27;;;;;;;5.80;4.40;;;;;;;18.52;61.95;101096.30;107462;1284;62462;-83
2022/09/06 03:45:58;;;;;;;5.40;4.50;;;;;;;18.45;62.02;101094.36;107656;1273;75317;-84
2022/09/06 03:48:29;;;;;;;5.60;5.00;;;;;;;18.42;61.83;101093.02;107474;1275;71998;-84
2022/09/06 03:50:59;;;;;;;5.40;4.70;;;;;;;18.39;61.85;101090.77;108031;1270;73671;-84
2022/09/06 03:53:28;;;;;;;6.80;4.90;;;;;;;18.36;61.89;101089.05;107974;1277;62751;-84
2022/09/06 03:55:56;;;;;;;5.30;4.30;;;;;;;18.32;62.05;101085.48;107861;1278;61586;-85
2022/09/06 03:58:28;;;;;;;5.70;4.60;;;;;;;18.28;61.92;101082.73;108031;1277;74666;-84
2022/09/06 04:01:00;;;;;;;4.80;4.00;;;;;;;18.25;61.94;101084.49;108011;1279;71518;-84
2022/09/06 04:03:27;;;;;;;6.50;4.10;;;;;;;18.21;62.05;101082.33;108425;1277;72129;-85
2022/09/06 04:05:54;;;;;;;5.50;4.30;;;;;;;18.18;61.97;101087.64;108365;1278;62639;-85
2022/09/06 04:08:21;;;;;;;7.80;4.40;;;;;;;18.15;62.11;101085.42;108377;1279;60281;-85
2022/09/06 04:10:55;;;;;;;5.60;4.10;;;;;;;18.11;62.17;101082.92;108353;1277;73904;-83
2022/09/06 04:13:23;;;;;;;4.70;4.10;;;;;;;18.09;62.38;101091.82;108394;1277;71325;-83
2022/09/06 04:15:49;;;;;;;4.70;4.10;;;;;;;18.05;62.40;101094.20;108136;1277;72940;-83
2022/09/06 04:18:16;;;;;;;4.90;4.10;;;;;;;18.03;62.36;101092.67;108141;1277;61825;-83
2022/09/06 04:20:46;;;;;;;6.50;4.40;;;;;;;18.02;62.36;101093.87;108223;1277;61000;-83
2022/09/06 04:23:13;;;;;;;6.00;4.10;;;;;;;18.00;62.41;101096.23;107138;1277;1413717;-83
2022/09/06 04:25:40;;;;;;;5.80;4.30;;;;;;;17.99;62.22;101097.48;108166;1277;70376;-83
2022/09/06 04:28:06;;;;;;;8.60;4.70;;;;;;;17.98;62.29;101100.34;108251;1277;72674;-84
2022/09/06 04:30:37;;;;;;;4.70;4.10;;;;;;;17.98;62.32;101099.64;107775;1277;61155;-83
2022/09/06 04:33:47;;;;;;;6.20;4.30;;;;;;;17.96;62.32;101097.69;108031;1277;59235;-84
2022/09/06 04:36:14;;;;;;;5.00;4.10;;;;;;;17.96;62.25;101094.40;107950;1279;75117;-84
2022/09/06 04:38:43;;;;;;;5.60;4.10;;;;;;;17.93;62.28;101088.38;107763;1279;70540;-83
2022/09/06 04:41:12;;;;;;;5.50;4.10;;;;;;;17.92;62.42;101083.48;107960;1281;72987;-84
2022/09/06 04:43:39;;;;;;;7.30;4.00;;;;;;;17.91;62.21;101078.49;107703;1280;62310;-78
2022/09/06 04:46:20;;;;;;;6.00;4.20;;;;;;;17.90;62.44;101078.95;107854;1279;61628;-78
2022/09/06 04:48:47;;;;;;;5.30;3.90;;;;;;;17.92;62.24;101083.30;107756;1279;73479;-78
2022/09/06 04:51:14;;;;;;;5.60;4.10;;;;;;;17.93;62.11;101085.65;107916;1279;71307;-77
2022/09/06 04:53:41;;;;;;;5.50;4.40;;;;;;;17.96;62.36;101087.30;107849;1279;71905;-78
2022/09/06 04:56:19;;;;;;;6.10;4.70;;;;;;;17.98;62.16;101086.38;107895;1279;62130;-77
2022/09/06 04:58:48;;;;;;;6.00;4.30;;;;;;;17.97;61.99;101084.31;107930;1279;61634;-77
2022/09/06 05:01:15;;;;;;;6.20;4.50;;;;;;;17.96;61.93;101084.45;107723;1279;73109;-78
2022/09/06 05:03:42;;;;;;;6.70;4.20;;;;;;;17.95;61.85;101079.58;107446;1281;71215;-78
2022/09/06 05:06:18;;;;;;;5.80;4.20;;;;;;;17.95;61.82;101073.55;107646;1279;74030;-78
2022/09/06 05:08:45;;;;;;;5.60;4.30;;;;;;;17.93;61.81;101070.50;107637;1279;62126;-77
2022/09/06 05:11:12;;;;;;;4.90;4.10;;;;;;;17.93;61.89;101066.02;107485;1281;60333;-77
2022/09/06 05:13:41;;;;;;;6.10;4.20;;;;;;;17.93;61.76;101065.71;107564;1279;75595;-77
2022/09/06 05:16:08;;;;;;;8.00;4.10;;;;;;;17.92;61.67;101072.30;107875;1279;71370;-77
2022/09/06 05:18:35;;;;;;;5.30;4.40;;;;;;;17.91;61.81;101078.36;107477;1279;73904;-77
2022/09/06 05:21:05;;;;;;;6.90;4.40;;;;;;;17.91;61.71;101081.75;107581;1279;62958;-77
2022/09/06 05:23:31;;;;;;;5.10;4.20;;;;;;;17.92;61.67;101079.88;107869;1279;61707;-77
2022/09/06 05:25:58;;;;;;;6.60;4.00;;;;;;;17.97;61.63;101077.37;107609;1279;76432;-77
2022/09/06 05:28:25;;;;;;;6.10;4.00;;;;;;;17.98;61.59;101079.31;107639;1281;72656;-77
2022/09/06 05:30:52;;;;;;;5.90;4.00;;;;;;;17.96;61.51;101070.33;107841;1279;72844;-77
2022/09/06 05:33:21;;;;;;;5.60;4.10;;;;;;;17.96;61.44;101067.27;107540;1279;63676;-77
2022/09/06 05:35:48;;;;;;;5.70;4.10;;;;;;;17.96;61.37;101065.87;107633;1279;59649;-77
2022/09/06 05:38:15;;;;;;;4.60;3.90;;;;;;;17.96;61.32;101065.13;107863;1279;74706;-77
2022/09/06 05:40:42;;;;;;;6.60;4.00;;;;;;;17.98;61.34;101066.72;107634;1279;72492;-77
2022/09/06 05:43:08;;;;;;;4.70;4.00;;;;;;;17.99;61.36;101067.75;107833;1279;74027;-79
2022/09/06 05:45:36;;;;;;;5.70;3.90;;;;;;;18.00;61.32;101073.27;107681;1279;62008;-78
2022/09/06 05:48:03;;;;;;;6.60;5.30;;;;;;;18.02;61.04;101069.84;107981;1278;60559;-79
2022/09/06 05:50:31;;;;;;;4.90;3.90;;;;;;;18.04;60.96;101067.92;107958;1279;74323;-79
2022/09/06 05:52:57;;;;;;;5.20;4.00;;;;;;;18.06;60.87;101070.35;107543;1282;72297;-76
2022/09/06 05:55:24;;;;;;;11.20;4.40;;;;;;;18.06;60.81;101064.29;107714;1280;72905;-77
2022/09/06 05:57:51;;;;;;;5.70;3.70;;;;;;;18.06;60.72;101057.67;107893;1279;62934;-77
2022/09/06 06:00:19;;;;;;;5.20;4.00;;;;;;;18.07;60.73;101060.89;107873;1279;61355;-77
2022/09/06 06:02:47;;;;;;;6.80;4.30;;;;;;;18.07;60.89;101060.14;107555;1279;75155;-77
2022/09/06 06:05:14;;;;;;;4.50;3.70;;;;;;;18.06;60.81;101061.92;107832;1279;71185;-77
2022/09/06 06:07:41;;;;;;;6.50;4.50;;;;;;;18.05;60.70;101058.71;107535;1279;73236;-77
2022/09/06 06:10:09;;;;;;;5.40;3.80;;;;;;;18.05;60.66;101062.72;107715;1279;64585;-77
2022/09/06 06:12:36;;;;;;;5.80;4.00;;;;;;;18.07;60.70;101066.91;107963;1278;60600;-77
2022/09/06 06:15:04;;;;;;;6.10;4.00;;;;;;;18.09;60.65;101070.04;107489;1279;75097;-76
2022/09/06 06:17:31;;;;;;;6.20;4.10;;;;;;;18.11;60.60;101071.23;107650;1279;71420;-78
2022/09/06 06:19:58;;;;;;;6.50;4.20;;;;;;;18.15;60.53;101078.02;107905;1279;74199;-78
2022/09/06 06:22:25;;;;;;;5.30;4.00;;;;;;;18.20;60.42;101089.69;107925;1279;62253;-78
2022/09/06 06:24:52;;;;;;;5.40;4.10;;;;;;;18.23;60.30;101099.63;107972;1279;61549;-78
2022/09/06 06:27:20;;;;;;;5.00;4.00;;;;;;;18.26;60.34;101113.68;107641;1279;75280;-77
2022/09/06 06:29:46;;;;;;;5.70;4.00;;;;;;;18.27;60.06;101130.59;107630;1280;71653;-76
2022/09/06 06:32:14;;;;;;;4.60;4.00;;;;;;;18.25;60.02;101149.21;107940;1279;73123;-77
2022/09/06 06:34:40;;;;;;;7.90;4.10;;;;;;;18.23;60.07;101164.06;107662;1279;63982;-76
2022/09/06 06:37:07;;;;;;;6.50;4.10;;;;;;;18.19;60.42;101170.05;107860;1279;59931;-76
2022/09/06 06:39:34;;;;;;;6.80;4.30;;;;;;;18.17;60.81;101157.83;107919;1279;75132;-76
2022/09/06 06:42:02;;;;;;;6.40;4.30;;;;;;;18.21;61.87;101155.79;107901;1279;72120;-76
2022/09/06 06:44:29;;;;;;;6.80;4.20;;;;;;;18.24;62.37;101162.09;107666;1279;73971;-77
2022/09/06 06:46:57;;;;;;;5.70;4.60;;;;;;;18.21;62.30;101171.23;107891;1279;63355;-77
2022/09/06 06:49:24;;;;;;;5.30;4.30;;;;;;;18.12;62.47;101165.03;107640;1279;61357;-77
2022/09/06 06:51:51;;;;;;;13.40;7.80;;;;;;;18.07;63.07;101165.46;107909;1279;74338;-77
2022/09/06 06:54:18;;;;;;;8.70;5.10;;;;;;;18.05;63.85;101156.77;107881;1279;72666;-78
2022/09/06 06:56:45;;;;;;;7.90;6.20;;;;;;;18.03;64.25;101149.38;107672;1279;74162;-77
2022/09/06 06:59:13;;;;;;;7.20;4.80;;;;;;;17.99;64.72;101146.30;107932;1278;62019;-78
2022/09/06 07:01:40;;;;;;;9.10;4.60;;;;;;;17.97;64.23;101144.48;107662;1281;60464;-78
2022/09/06 07:04:09;;;;;;;9.30;5.50;;;;;;;17.97;64.69;101141.42;107903;1279;75187;-78
2022/09/06 07:06:49;;;;;;;8.30;5.50;;;;;;;17.97;64.62;101132.48;107901;1279;72884;-78
2022/09/06 07:09:37;;;;;;;9.10;5.30;;;;;;;17.97;64.80;101132.95;107845;1279;73039;-78
2022/09/06 07:12:24;;;;;;;7.00;4.90;;;;;;;17.96;64.90;101134.08;107907;1279;62581;-75
2022/09/06 07:14:51;;;;;;;9.10;5.30;;;;;;;17.90;64.71;101137.70;107677;1279;62218;-75
2022/09/06 07:17:18;;;;;;;8.30;4.60;;;;;;;17.83;66.02;101139.34;107825;1279;75602;-75
2022/09/06 07:19:44;;;;;;;7.30;4.80;;;;;;;17.78;66.28;101139.70;107664;1279;72287;-75
2022/09/06 07:22:32;;;;;;;7.50;6.00;;;;;;;17.73;66.73;101146.42;107694;1279;72901;-75
2022/09/06 07:24:58;;;;;;;6.60;4.50;;;;;;;17.71;66.94;101139.55;107917;1279;62019;-75
2022/09/06 07:27:25;;;;;;;8.20;5.30;;;;;;;17.68;67.20;101139.48;107674;1278;60346;-78
2022/09/06 07:30:13;;;;;;;6.80;4.10;;;;;;;17.64;67.15;101147.34;107734;1279;71749;-77
2022/09/06 07:32:40;;;;;;;10.70;7.10;;;;;;;17.60;67.17;101147.10;107926;1278;71420;-77
2022/09/06 07:35:07;;;;;;;10.00;5.90;;;;;;;17.58;67.32;101139.77;107735;1279;74560;-77
2022/09/06 07:37:34;;;;;;;8.40;4.90;;;;;;;17.58;67.37;101135.92;107801;1279;62151;-76
2022/09/06 07:40:02;;;;;;;7.40;4.90;;;;;;;17.57;67.46;101137.98;107907;1279;59690;-76
2022/09/06 07:42:30;;;;;;;7.60;5.10;;;;;;;17.56;67.84;101135.02;107691;1279;73546;-77
2022/09/06 07:45:03;;;;;;;6.90;5.30;;;;;;;17.62;68.17;101138.19;107686;1279;72355;-76
2022/09/06 07:47:30;;;;;;;8.60;5.40;;;;;;;17.65;68.31;101136.15;107661;1279;73176;-76
2022/09/06 07:50:17;;;;;;;11.80;6.20;;;;;;;17.67;68.81;101138.83;107540;1279;60820;-76
2022/09/06 07:53:08;;;;;;;8.40;4.90;;;;;;;17.70;68.36;101138.85;107938;1279;60337;-76
2022/09/06 07:55:41;;;;;;;9.60;6.10;;;;;;;17.71;68.37;101139.05;107903;1279;74728;-77
2022/09/06 07:58:08;;;;;;;7.90;5.00;;;;;;;17.71;67.85;101141.33;107961;1278;72649;-77
2022/09/06 08:00:37;;;;;;;7.20;4.70;;;;;;;17.74;67.78;101140.61;107851;1278;73935;-77
2022/09/06 08:03:04;;;;;;;8.20;4.90;;;;;;;17.75;67.53;101133.64;107957;1279;62249;-77
2022/09/06 08:05:30;;;;;;;28.20;18.40;;;;;;;17.76;67.41;101132.77;107597;1281;60910;-77
2022/09/06 08:08:17;;;;;;;6.40;5.00;;;;;;;17.80;67.26;101133.46;107927;1278;73837;-77
2022/09/06 08:11:07;;;;;;;9.20;5.50;;;;;;;17.81;66.92;101131.89;107946;1278;72396;-78
2022/09/06 08:13:35;;;;;;;9.80;4.80;;;;;;;17.82;66.88;101139.25;107703;1279;73099;-77
2022/09/06 08:16:07;;;;;;;7.50;4.90;;;;;;;17.86;66.95;101141.23;107950;1279;63527;-77
2022/09/06 08:18:36;;;;;;;8.90;5.60;;;;;;;17.94;66.90;101143.02;107489;1281;59924;-77
2022/09/06 08:21:11;;;;;;;7.60;4.60;;;;;;;17.99;66.64;101145.27;107942;1279;75422;-77
2022/09/06 08:23:48;;;;;;;9.80;5.10;;;;;;;18.05;66.50;101148.59;107838;1279;72341;-77
2022/09/06 08:26:16;;;;;;;14.70;11.20;;;;;;;18.16;66.37;101145.23;107545;1279;74251;-77
2022/09/06 08:28:43;;;;;;;9.70;5.10;;;;;;;18.29;66.10;101141.73;107501;1279;62662;-77
2022/09/06 08:31:14;;;;;;;8.90;5.30;;;;;;;18.44;65.80;101134.12;107477;1281;60302;-77
2022/09/06 08:33:43;;;;;;;9.40;5.30;;;;;;;18.60;65.44;101126.86;107618;1279;73130;-76
2022/09/06 08:36:10;;;;;;;8.90;6.20;;;;;;;18.73;65.01;101115.11;107795;1278;71531;-77
2022/09/06 08:38:37;;;;;;;9.40;5.80;;;;;;;18.84;64.46;101118.95;107693;1279;73262;-77
2022/09/06 08:41:10;;;;;;;8.80;4.80;;;;;;;18.98;63.85;101114.27;107962;1279;63634;-77
2022/09/06 08:43:38;;;;;;;6.10;4.70;;;;;;;19.18;63.06;101114.25;107943;1279;60392;-77
2022/09/06 08:46:08;;;;;;;10.00;5.30;;;;;;;19.32;62.56;101115.70;107765;1279;75371;-78
2022/09/06 08:48:38;;;;;;;7.30;3.60;;;;;;;19.43;61.88;101121.24;107657;1279;72857;-77
2022/09/06 08:51:22;;;;;;;12.60;5.50;;;;;;;19.51;61.19;101116.48;107729;1279;73900;-77
2022/09/06 08:53:51;;;;;;;11.90;6.00;;;;;;;19.64;61.04;101117.08;107675;1280;62011;-77
2022/09/06 08:56:27;;;;;;;6.60;3.80;;;;;;;19.75;60.49;101118.02;107541;1281;60436;-77
2022/09/06 08:59:07;;;;;;;9.90;5.80;;;;;;;19.81;59.70;101111.65;107977;1279;74282;-77
2022/09/06 09:02:06;;;;;;;9.20;5.50;;;;;;;19.89;59.32;101105.76;107615;1281;71377;-78
2022/09/06 09:04:35;;;;;;;7.10;3.30;;;;;;;20.00;58.67;101100.60;107614;1279;74199;-77
2022/09/06 09:07:22;;;;;;;12.70;4.40;;;;;;;20.15;58.21;101095.68;107527;1279;61700;-79
2022/09/06 09:09:51;;;;;;;6.30;3.10;;;;;;;20.28;57.71;101091.67;107843;1279;59328;-79
2022/09/06 09:12:22;;;;;;;10.50;3.70;;;;;;;20.43;57.84;101092.58;107958;1279;74585;-78
2022/09/06 09:14:54;;;;;;;6.20;3.20;;;;;;;20.61;57.32;101097.25;107981;1279;72253;-77
2022/09/06 09:17:28;;;;;;;6.10;3.00;;;;;;;20.79;56.61;101103.90;107910;1279;73010;-77
2022/09/06 09:19:55;;;;;;;5.40;3.10;;;;;;;20.94;56.18;101102.16;107733;1279;60640;-77
2022/09/06 09:22:24;;;;;;;5.80;2.90;;;;;;;21.11;54.96;101099.48;107750;1279;61452;-77
2022/09/06 09:24:51;;;;;;;5.30;3.40;;;;;;;21.27;54.22;101099.27;107744;1279;73425;-78
2022/09/06 09:27:24;;;;;;;5.90;2.90;;;;;;;21.38;52.76;101098.19;107960;1279;72524;-78
2022/09/06 09:29:54;;;;;;;5.90;2.80;;;;;;;21.48;52.44;101096.42;107934;1279;74148;-78
2022/09/06 09:32:43;;;;;;;7.30;3.10;;;;;;;21.55;51.41;101089.88;107921;1279;59538;-77
2022/09/06 09:35:15;;;;;;;8.40;3.50;;;;;;;21.61;51.01;101079.23;107699;1279;61850;-78
2022/09/06 09:37:43;;;;;;;7.60;3.50;;;;;;;21.62;50.74;101071.21;107602;1279;75589;-77
2022/09/06 09:40:24;;;;;;;9.80;3.30;;;;;;;21.57;50.62;101072.15;107704;1279;72783;-77
2022/09/06 09:42:54;;;;;;;12.40;3.20;;;;;;;21.56;51.16;101073.25;107969;1278;72617;-77
2022/09/06 09:45:30;;;;;;;7.30;3.00;;;;;;;21.65;51.43;101071.98;107756;1280;59623;-76
2022/09/06 09:48:19;;;;;;;6.00;3.60;;;;;;;21.77;51.04;101071.36;107672;1279;60449;-78
2022/09/06 09:50:46;;;;;;;10.00;4.10;;;;;;;21.94;50.26;101079.19;107963;1279;74492;-78
2022/09/06 09:53:15;;;;;;;5.20;2.90;;;;;;;22.08;49.15;101079.48;107965;1279;71444;-78
2022/09/06 09:55:43;;;;;;;4.90;2.80;;;;;;;22.18;49.02;101075.36;107694;1279;73039;-76
2022/09/06 09:58:39;;;;;;;6.00;2.70;;;;;;;22.33;48.84;101069.10;107916;1279;60548;-78
2022/09/06 10:01:28;;;;;;;6.50;3.40;;;;;;;22.58;48.14;101066.50;107651;1279;60991;-77
2022/09/06 10:04:09;;;;;;;5.80;2.80;;;;;;;22.75;47.91;101066.48;107813;1281;75260;-77
2022/09/06 10:07:08;;;;;;;9.20;2.80;;;;;;;22.92;46.95;101059.60;107975;1279;71583;-78
2022/09/06 10:09:39;;;;;;;6.20;4.10;;;;;;;23.14;46.51;101055.08;107711;1279;72980;-76
2022/09/06 10:12:06;;;;;;;5.60;3.10;;;;;;;23.27;45.89;101051.23;107698;1279;60624;-76
2022/09/06 10:14:44;;;;;;;8.20;4.50;;;;;;;23.39;46.08;101057.40;107804;1279;60667;-77
2022/09/06 10:17:21;;;;;;;6.20;3.10;;;;;;;23.40;45.52;101056.13;107663;1279;73984;-76
2022/09/06 10:19:48;;;;;;;8.90;3.70;;;;;;;23.27;45.09;101057.45;107442;1281;71563;-77
2022/09/06 10:22:43;;;;;;;4.90;2.70;;;;;;;23.10;45.55;101053.66;107797;1279;74097;-76
2022/09/06 10:25:39;;;;;;;6.50;2.90;;;;;;;22.92;45.92;101052.52;107524;1279;60867;-77
2022/09/06 10:28:30;;;;;;;7.30;2.60;;;;;;;22.84;46.34;101053.48;107714;1279;61682;-77
2022/09/06 10:31:11;;;;;;;4.70;2.70;;;;;;;22.73;46.01;101055.10;107712;1279;76683;-76
2022/09/06 10:34:08;;;;;;;6.10;2.50;;;;;;;22.66;46.44;101047.48;107938;1279;72423;-77
2022/09/06 10:36:39;;;;;;;5.30;2.70;;;;;;;22.68;46.75;101046.48;107711;1279;74259;-77
2022/09/06 10:39:28;;;;;;;6.20;2.70;;;;;;;22.67;46.36;101045.11;107749;1279;60866;-77
2022/09/06 10:42:09;;;;;;;6.50;2.70;;;;;;;22.64;46.25;101041.83;107989;1278;60394;-77
2022/09/06 10:44:51;;;;;;;9.20;2.80;;;;;;;22.63;46.11;101042.83;107899;1279;74190;-77
2022/09/06 10:47:18;;;;;;;6.50;2.40;;;;;;;22.67;46.33;101042.95;107961;1277;72702;-77
2022/09/06 10:49:51;;;;;;;6.40;2.30;;;;;;;22.73;46.18;101038.94;107841;1279;73984;-76
2022/09/06 10:52:25;;;;;;;6.00;2.60;;;;;;;22.84;46.37;101037.31;107842;1279;59364;-76
2022/09/06 10:54:56;;;;;;;5.10;2.50;;;;;;;23.00;45.83;101035.98;107708;1279;62152;-76
2022/09/06 10:57:50;;;;;;;6.80;3.00;;;;;;;23.07;45.42;101040.14;107759;1279;73996;-76
2022/09/06 11:00:45;;;;;;;7.20;2.70;;;;;;;23.20;45.50;101033.01;107993;1279;69977;-76
2022/09/06 11:03:33;;;;;;;6.40;2.60;;;;;;;23.33;45.13;101032.42;107894;1279;74667;-75
2022/09/06 11:06:27;;;;;;;4.30;2.50;;;;;;;23.45;45.01;101028.55;107603;1279;59388;-75
2022/09/06 11:09:20;;;;;;;4.20;2.40;;;;;;;23.53;45.03;101023.73;107675;1279;61229;-75
2022/09/06 11:11:56;;;;;;;6.10;2.70;;;;;;;23.69;44.82;101016.82;107718;1279;74589;-75
2022/09/06 11:14:26;;;;;;;7.90;3.50;;;;;;;23.84;44.73;101012.10;107733;1279;73112;-75
2022/09/06 11:17:03;;;;;;;3.90;2.20;;;;;;;24.05;44.87;101012.96;107774;1280;74069;-75
2022/09/06 11:19:52;;;;;;;6.50;2.50;;;;;;;24.31;44.38;101008.89;107970;1279;60445;-75
2022/09/06 11:22:47;;;;;;;6.40;2.70;;;;;;;24.62;43.78;101020.59;107915;1279;60319;-75
2022/09/06 11:25:30;;;;;;;25.00;19.60;;;;;;;24.78;42.70;101022.65;107901;1279;74227;-75
2022/09/06 11:27:59;;;;;;;13.20;2.90;;;;;;;24.86;42.58;101024.11;107973;1278;71403;-75
2022/09/06 11:30:28;;;;;;;11.10;5.10;;;;;;;24.84;42.02;101020.63;107730;1279;72928;-74
2022/09/06 11:33:29;;;;;;;6.50;4.30;;;;;;;24.89;42.43;101016.70;107934;1279;60574;-75
2022/09/06 11:36:33;;;;;;;20.20;10.40;;;;;;;24.96;42.33;101008.92;107928;1278;58351;-78
2022/09/06 11:39:02;;;;;;;7.80;5.40;;;;;;;25.14;42.27;101003.69;107795;1281;74307;-78
2022/09/06 11:41:35;;;;;;;4.70;2.50;;;;;;;25.27;41.81;100996.77;107753;1279;72851;-78
2022/09/06 11:44:03;;;;;;;8.50;6.20;;;;;;;25.44;41.73;100997.48;108007;1279;75707;-78